Time;durP1;ratioP1;P1;durP2;ratioP2;P2;SDS_P1;SDS_P2;PMS_P1;PMS_P2;Temp;Humidity;BMP_temperature;BMP_pressure;BME280_temperature;BME280_humidity;BME280_pressure;Samples;Min_cycle;Max_cycle;Signal;HPM_P1;HPM_P2
2022/12/21 00:01:20;;;;;;;33.97;21.43;;;0.90;99.90;;;;;;5075048;28;20221;-72
2022/12/21 00:03:46;;;;;;;39.77;21.93;;;0.90;99.90;;;;;;5064995;28;20182;-72
2022/12/21 00:06:12;;;;;;;38.10;23.77;;;0.90;99.90;;;;;;5073509;28;20179;-72
2022/12/21 00:08:43;;;;;;;42.37;22.93;;;0.90;99.90;;;;;;5075863;28;20198;-72
2022/12/21 00:11:09;;;;;;;38.87;21.63;;;0.90;99.90;;;;;;5068673;28;20198;-72
2022/12/21 00:13:35;;;;;;;41.30;21.50;;;1.00;99.90;;;;;;5067658;28;20557;-72
2022/12/21 00:16:04;;;;;;;36.37;21.07;;;1.00;99.90;;;;;;5068611;28;20463;-73
2022/12/21 00:18:32;;;;;;;40.40;21.90;;;0.90;99.90;;;;;;5073311;28;20202;-72
2022/12/21 00:20:58;;;;;;;36.43;22.57;;;0.90;99.90;;;;;;5068258;28;20206;-72
2022/12/21 00:23:23;;;;;;;38.93;22.63;;;0.90;99.90;;;;;;5068944;28;20178;-72
2022/12/21 00:25:49;;;;;;;39.67;21.83;;;0.80;99.90;;;;;;5069517;28;20202;-72
2022/12/21 00:28:15;;;;;;;39.30;22.20;;;0.80;99.90;;;;;;5066097;28;20297;-72
2022/12/21 00:30:40;;;;;;;40.23;22.33;;;0.80;99.90;;;;;;5067082;28;20208;-72
2022/12/21 00:33:06;;;;;;;42.97;23.63;;;0.70;99.90;;;;;;5063891;28;20677;-73
2022/12/21 00:35:32;;;;;;;38.53;22.50;;;0.80;99.90;;;;;;5069617;28;20187;-73
2022/12/21 00:37:57;;;;;;;39.47;21.90;;;0.80;99.90;;;;;;5066556;28;20218;-73
2022/12/21 00:40:23;;;;;;;41.70;23.37;;;0.80;99.90;;;;;;5064803;28;20203;-72
2022/12/21 00:42:48;;;;;;;39.50;22.83;;;0.70;99.90;;;;;;5066792;28;20187;-72
2022/12/21 00:45:14;;;;;;;39.17;23.77;;;0.70;99.90;;;;;;5069312;28;20170;-72
2022/12/21 00:47:39;;;;;;;36.07;21.83;;;0.60;99.90;;;;;;5067411;28;20207;-72
2022/12/21 00:50:06;;;;;;;41.37;23.40;;;0.60;99.90;;;;;;5066255;28;20210;-72
2022/12/21 00:52:31;;;;;;;38.00;21.40;;;0.70;99.90;;;;;;5068785;28;20179;-72
2022/12/21 00:54:57;;;;;;;37.23;22.77;;;0.60;99.90;;;;;;5067533;28;20186;-72
2022/12/21 00:57:22;;;;;;;44.87;22.63;;;0.60;99.90;;;;;;5064255;28;20669;-72
2022/12/21 00:59:48;;;;;;;41.17;22.93;;;0.60;99.90;;;;;;5067332;28;20225;-71
2022/12/21 01:02:13;;;;;;;37.33;22.07;;;0.60;99.90;;;;;;5068452;28;20223;-72
2022/12/21 01:04:39;;;;;;;41.10;24.20;;;0.70;99.90;;;;;;5068590;28;20187;-72
2022/12/21 01:07:04;;;;;;;38.83;21.93;;;0.60;99.90;;;;;;5068342;28;20179;-72
2022/12/21 01:09:30;;;;;;;39.67;22.97;;;0.70;99.90;;;;;;5076265;28;20556;-73
2022/12/21 01:11:56;;;;;;;39.67;21.43;;;0.70;99.90;;;;;;5068464;28;20179;-73
2022/12/21 01:14:21;;;;;;;38.53;23.37;;;0.70;99.90;;;;;;5075201;28;20595;-71
2022/12/21 01:16:47;;;;;;;40.63;22.80;;;0.80;99.90;;;;;;5062450;28;20208;-71
2022/12/21 01:19:12;;;;;;;38.30;22.03;;;0.80;99.90;;;;;;5065467;28;20175;-71
2022/12/21 01:21:38;;;;;;;36.07;20.17;;;0.80;99.90;;;;;;5063673;28;20175;-71
2022/12/21 01:24:04;;;;;;;38.43;22.27;;;0.80;99.90;;;;;;5073110;28;20229;-71
2022/12/21 01:26:30;;;;;;;37.27;21.57;;;0.90;99.90;;;;;;5068768;28;20252;-71
2022/12/21 01:28:56;;;;;;;41.30;23.20;;;0.80;99.90;;;;;;5066327;28;20661;-71
2022/12/21 01:31:22;;;;;;;38.27;22.57;;;0.90;99.90;;;;;;5069355;28;20171;-72
2022/12/21 01:33:48;;;;;;;35.90;21.13;;;0.90;99.90;;;;;;5060126;28;20183;-73
2022/12/21 01:36:16;;;;;;;40.57;23.97;;;0.90;99.90;;;;;;5068750;28;20192;-72
2022/12/21 01:38:43;;;;;;;40.37;23.80;;;1.00;99.90;;;;;;5072662;28;20517;-72
2022/12/21 01:41:14;;;;;;;41.03;22.97;;;0.90;99.90;;;;;;5067761;28;20281;-72
2022/12/21 01:43:46;;;;;;;36.77;21.57;;;1.00;99.90;;;;;;5073318;28;20163;-72
2022/12/21 01:46:32;;;;;;;41.50;23.27;;;1.00;99.90;;;;;;5069476;28;20190;-72
2022/12/21 01:49:18;;;;;;;41.63;21.57;;;1.00;99.90;;;;;;5069132;28;20195;-72
2022/12/21 01:51:49;;;;;;;42.77;21.63;;;1.10;99.90;;;;;;5070453;28;20172;-72
2022/12/21 01:54:22;;;;;;;38.22;22.17;;;1.00;99.90;;;;;;5072589;28;20170;-72
2022/12/21 01:56:50;;;;;;;39.20;22.70;;;0.90;99.90;;;;;;5072921;28;20203;-72
2022/12/21 01:59:22;;;;;;;37.57;21.07;;;0.90;99.90;;;;;;5071959;28;20262;-72
2022/12/21 02:01:48;;;;;;;34.73;22.60;;;0.90;99.90;;;;;;5072167;28;20205;-72
2022/12/21 02:04:14;;;;;;;35.93;21.90;;;0.90;99.90;;;;;;5068432;28;20175;-72
2022/12/21 02:06:51;;;;;;;38.70;22.73;;;0.90;99.90;;;;;;5071360;28;20188;-72
2022/12/21 02:09:17;;;;;;;37.23;21.30;;;0.90;99.90;;;;;;5067839;28;20231;-72
2022/12/21 02:11:43;;;;;;;35.90;22.53;;;0.90;99.90;;;;;;5073116;28;20253;-72
2022/12/21 02:14:15;;;;;;;38.33;22.20;;;0.80;99.90;;;;;;5068505;28;20270;-72
2022/12/21 02:16:46;;;;;;;39.53;22.57;;;0.80;99.90;;;;;;5066885;28;20203;-72
2022/12/21 02:19:24;;;;;;;37.80;21.40;;;0.90;99.90;;;;;;5073985;28;20175;-72
2022/12/21 02:21:56;;;;;;;40.27;22.90;;;0.90;99.90;;;;;;5063422;28;20175;-72
2022/12/21 02:24:40;;;;;;;40.40;23.47;;;0.90;99.90;;;;;;5066760;28;20176;-72
2022/12/21 02:27:30;;;;;;;37.80;21.57;;;0.80;99.90;;;;;;5069371;28;20241;-72
2022/12/21 02:30:15;;;;;;;33.87;20.93;;;0.80;99.90;;;;;;5071024;28;20245;-73
2022/12/21 02:33:01;;;;;;;35.00;21.13;;;0.90;99.90;;;;;;5067078;28;20179;-72
2022/12/21 02:35:42;;;;;;;37.43;21.90;;;0.90;99.90;;;;;;5073254;28;20179;-72
2022/12/21 02:38:08;;;;;;;35.50;20.23;;;0.90;99.90;;;;;;5067721;28;20700;-72
2022/12/21 02:40:56;;;;;;;39.33;22.47;;;0.90;99.90;;;;;;5069978;28;20191;-72
2022/12/21 02:46:59;;;;;;;37.40;22.27;;;0.90;99.90;;;;;;5069075;28;20297;-72
2022/12/21 02:49:49;;;;;;;35.03;20.30;;;0.80;99.90;;;;;;5069194;28;20198;-72
2022/12/21 02:52:14;;;;;;;39.60;21.97;;;0.80;99.90;;;;;;5065055;28;20172;-72
2022/12/21 02:54:41;;;;;;;33.63;20.57;;;0.80;99.90;;;;;;5066305;28;20510;-72
2022/12/21 02:57:07;;;;;;;37.00;21.47;;;0.80;99.90;;;;;;5069093;28;20297;-72
2022/12/21 02:59:38;;;;;;;39.00;22.37;;;0.90;99.90;;;;;;5067591;28;20200;-72
2022/12/21 03:02:27;;;;;;;37.63;21.83;;;1.00;99.90;;;;;;5062671;28;20206;-73
2022/12/21 03:05:30;;;;;;;35.27;19.80;;;0.90;99.90;;;;;;5062843;28;20687;-74
2022/12/21 03:08:04;;;;;;;35.67;20.50;;;1.00;99.90;;;;;;5068707;28;20183;-72
2022/12/21 03:10:51;;;;;;;34.40;21.37;;;1.00;99.90;;;;;;5071461;28;20213;-72
2022/12/21 03:13:37;;;;;;;34.93;20.77;;;1.10;99.90;;;;;;5070012;28;20594;-72
2022/12/21 03:16:07;;;;;;;38.43;21.47;;;1.10;99.90;;;;;;5071556;28;20183;-72
2022/12/21 03:18:43;;;;;;;35.43;22.43;;;1.10;99.90;;;;;;5065919;28;20211;-72
2022/12/21 03:21:16;;;;;;;37.73;21.60;;;1.10;99.90;;;;;;5068657;28;20213;-72
2022/12/21 03:24:03;;;;;;;37.50;20.83;;;1.10;99.90;;;;;;5067330;28;20171;-72
2022/12/21 03:26:37;;;;;;;35.97;21.33;;;1.00;99.90;;;;;;5064512;28;20185;-72
2022/12/21 03:29:05;;;;;;;35.27;20.07;;;1.00;99.90;;;;;;5069027;28;20194;-72
2022/12/21 03:31:38;;;;;;;34.20;19.70;;;0.90;99.90;;;;;;5070538;28;20199;-72
2022/12/21 03:34:14;;;;;;;39.63;21.63;;;0.90;99.90;;;;;;5062256;28;20194;-72
2022/12/21 03:36:52;;;;;;;38.23;21.80;;;0.90;99.90;;;;;;5067913;28;20203;-72
2022/12/21 03:39:21;;;;;;;39.23;22.97;;;1.00;99.90;;;;;;5061052;28;20199;-72
2022/12/21 03:42:07;;;;;;;36.27;21.07;;;0.90;99.90;;;;;;5070063;28;20176;-72
2022/12/21 03:44:44;;;;;;;38.23;21.73;;;0.80;99.90;;;;;;5065400;28;20186;-72
2022/12/21 03:47:17;;;;;;;35.90;21.73;;;0.90;99.90;;;;;;5067849;28;20191;-72
2022/12/21 03:49:54;;;;;;;37.03;20.67;;;0.90;99.90;;;;;;5061832;28;20199;-72
2022/12/21 03:52:24;;;;;;;38.10;21.23;;;0.80;99.90;;;;;;5067140;28;20202;-72
2022/12/21 03:55:22;;;;;;;36.33;21.50;;;0.90;99.90;;;;;;5064193;28;20176;-71
2022/12/21 03:57:49;;;;;;;37.23;20.83;;;0.80;99.90;;;;;;5032289;28;20249;-71
2022/12/21 04:00:16;;;;;;;39.60;22.47;;;0.80;99.90;;;;;;5062810;28;20211;-71
2022/12/21 04:02:48;;;;;;;35.57;19.77;;;0.80;99.90;;;;;;5067438;28;20203;-71
2022/12/21 04:05:37;;;;;;;33.00;20.73;;;0.80;99.90;;;;;;5068207;28;20197;-71
2022/12/21 04:08:03;;;;;;;40.17;22.03;;;0.90;99.90;;;;;;5066967;28;21160;-71
2022/12/21 04:10:29;;;;;;;38.40;20.73;;;0.80;99.90;;;;;;5064270;28;20234;-71
2022/12/21 04:12:54;;;;;;;36.67;21.63;;;0.90;99.90;;;;;;5070263;28;20615;-71
2022/12/21 04:15:21;;;;;;;33.17;20.67;;;0.90;99.90;;;;;;5065550;28;20190;-71
2022/12/21 04:17:50;;;;;;;36.60;22.20;;;0.90;99.90;;;;;;5057681;28;20725;-71
2022/12/21 04:20:21;;;;;;;38.73;22.87;;;0.90;99.90;;;;;;5060248;28;20223;-71
2022/12/21 04:28:22;;;;;;;35.07;20.50;;;0.80;99.90;;;;;;5061071;28;20230;-71
2022/12/21 04:30:48;;;;;;;36.33;21.53;;;0.80;99.90;;;;;;5067562;28;20577;-71
2022/12/21 04:33:17;;;;;;;37.83;21.43;;;0.80;99.90;;;;;;5061009;28;20183;-71
2022/12/21 04:38:30;;;;;;;36.77;21.27;;;0.80;99.90;;;;;;5069381;28;20215;-71
2022/12/21 04:40:57;;;;;;;40.33;23.50;;;0.70;99.90;;;;;;5067620;28;20195;-71
2022/12/21 04:43:23;;;;;;;39.63;22.73;;;0.60;99.90;;;;;;5066944;28;20270;-71
2022/12/21 04:45:49;;;;;;;38.33;20.97;;;0.60;99.90;;;;;;5067162;28;20190;-71
2022/12/21 04:48:16;;;;;;;41.90;22.60;;;0.70;99.90;;;;;;5066213;28;20190;-71
2022/12/21 04:50:42;;;;;;;45.67;23.23;;;0.70;99.90;;;;;;5066675;28;20294;-71
2022/12/21 04:53:07;;;;;;;40.87;23.27;;;0.70;99.90;;;;;;5064416;28;20321;-71
2022/12/21 04:55:33;;;;;;;38.17;22.40;;;0.60;99.90;;;;;;5065385;28;20183;-71
2022/12/21 04:57:59;;;;;;;39.60;21.07;;;0.60;99.90;;;;;;5055926;28;20218;-71
2022/12/21 05:00:24;;;;;;;42.87;22.10;;;0.70;99.90;;;;;;5065422;28;20200;-71
2022/12/21 05:02:50;;;;;;;42.83;22.37;;;0.60;99.90;;;;;;5067129;28;20621;-71
2022/12/21 05:05:15;;;;;;;39.63;22.20;;;0.60;99.90;;;;;;5067768;28;20175;-71
2022/12/21 05:07:41;;;;;;;41.27;22.93;;;0.60;99.90;;;;;;5064130;28;20669;-71
2022/12/21 05:10:07;;;;;;;43.00;23.40;;;0.60;99.90;;;;;;5063163;28;20273;-71
2022/12/21 05:12:33;;;;;;;44.43;22.03;;;0.60;99.90;;;;;;5067421;28;20183;-71
2022/12/21 05:14:58;;;;;;;42.63;22.27;;;0.60;99.90;;;;;;5061315;28;20268;-71
2022/12/21 05:17:24;;;;;;;42.23;22.47;;;0.60;99.90;;;;;;5063344;28;20588;-71
2022/12/21 05:19:50;;;;;;;36.70;22.00;;;0.60;99.90;;;;;;5062906;28;20229;-71
2022/12/21 05:22:18;;;;;;;42.60;22.10;;;0.60;99.90;;;;;;5071525;28;20550;-71
2022/12/21 05:24:44;;;;;;;41.90;23.50;;;0.60;99.90;;;;;;5063669;28;20211;-71
2022/12/21 05:27:11;;;;;;;44.63;23.73;;;0.70;99.90;;;;;;5066378;28;20241;-71
2022/12/21 05:29:37;;;;;;;41.87;22.80;;;0.60;99.90;;;;;;5060762;28;20209;-71
2022/12/21 05:32:03;;;;;;;39.90;21.77;;;0.60;99.90;;;;;;5059960;28;20262;-71
2022/12/21 05:34:28;;;;;;;45.50;25.57;;;0.60;99.90;;;;;;5064939;28;20593;-71
2022/12/21 05:36:54;;;;;;;40.77;24.33;;;0.60;99.90;;;;;;5068143;28;20282;-71
2022/12/21 05:39:19;;;;;;;36.67;21.97;;;0.60;99.90;;;;;;5065643;28;20257;-71
2022/12/21 05:41:45;;;;;;;39.10;23.73;;;0.60;99.90;;;;;;5064464;28;20213;-71
2022/12/21 05:44:11;;;;;;;44.40;22.90;;;0.60;99.90;;;;;;5065271;28;20175;-71
2022/12/21 05:46:36;;;;;;;42.03;23.23;;;0.60;99.90;;;;;;5062326;28;20275;-71
2022/12/21 05:49:02;;;;;;;39.13;21.80;;;0.70;99.90;;;;;;5065120;28;20201;-71
2022/12/21 05:51:28;;;;;;;42.50;22.30;;;0.60;99.90;;;;;;5066819;28;20258;-71
2022/12/21 05:53:54;;;;;;;45.57;24.23;;;0.60;99.90;;;;;;5066173;28;20187;-71
2022/12/21 05:56:20;;;;;;;48.80;25.07;;;0.60;99.90;;;;;;5066456;28;20187;-71
2022/12/21 05:58:45;;;;;;;40.07;22.83;;;0.70;99.90;;;;;;5060443;28;20233;-71
2022/12/21 06:01:12;;;;;;;37.63;22.40;;;0.70;99.90;;;;;;5064463;28;20214;-71
2022/12/21 06:03:39;;;;;;;40.97;22.53;;;0.80;99.90;;;;;;5064287;28;20649;-71
2022/12/21 06:06:14;;;;;;;43.63;23.07;;;0.80;99.90;;;;;;5067323;28;20179;-71
2022/12/21 06:08:40;;;;;;;40.23;22.67;;;0.80;99.90;;;;;;5058859;28;20229;-71
2022/12/21 06:11:10;;;;;;;42.20;21.63;;;0.80;99.90;;;;;;5062559;28;20207;-71
2022/12/21 06:13:36;;;;;;;40.60;23.13;;;0.80;99.90;;;;;;5067542;28;20207;-71
2022/12/21 06:16:07;;;;;;;36.77;23.50;;;0.80;99.90;;;;;;5068094;28;20222;-71
2022/12/21 06:18:33;;;;;;;42.50;23.10;;;0.70;99.90;;;;;;5066727;28;20226;-72
2022/12/21 06:20:59;;;;;;;44.50;24.50;;;0.80;99.90;;;;;;5063730;28;20203;-70
2022/12/21 06:23:25;;;;;;;41.30;23.10;;;0.80;99.90;;;;;;5068443;28;20199;-70
2022/12/21 06:25:58;;;;;;;46.87;24.20;;;0.80;99.90;;;;;;5064313;28;20254;-70
2022/12/21 06:28:25;;;;;;;43.70;22.50;;;0.80;99.90;;;;;;5065646;28;20201;-70
2022/12/21 06:30:51;;;;;;;42.20;22.37;;;0.70;99.90;;;;;;5069787;28;20207;-70
2022/12/21 06:33:18;;;;;;;40.93;22.27;;;0.80;99.90;;;;;;5067349;28;20547;-71
2022/12/21 06:35:44;;;;;;;47.13;24.63;;;0.80;99.90;;;;;;5070143;28;20529;-70
2022/12/21 06:38:10;;;;;;;38.67;22.40;;;0.80;99.90;;;;;;5066848;28;20260;-70
2022/12/21 06:40:35;;;;;;;43.13;22.33;;;0.70;99.90;;;;;;5072691;28;20195;-71
2022/12/21 06:43:01;;;;;;;45.70;24.47;;;0.70;99.90;;;;;;5068556;28;20271;-70
2022/12/21 06:45:26;;;;;;;42.97;24.07;;;0.60;99.90;;;;;;5069357;28;20183;-70
2022/12/21 06:47:55;;;;;;;44.27;22.90;;;0.60;99.90;;;;;;5070073;28;20194;-70
2022/12/21 06:50:21;;;;;;;47.20;24.53;;;0.60;99.90;;;;;;5068696;28;20203;-70
2022/12/21 06:52:47;;;;;;;38.90;21.80;;;0.60;99.90;;;;;;5066673;28;20640;-70
2022/12/21 06:55:13;;;;;;;45.77;23.67;;;0.70;99.90;;;;;;5071353;28;20280;-70
2022/12/21 06:57:39;;;;;;;40.03;21.80;;;0.60;99.90;;;;;;5071362;28;20211;-70
2022/12/21 07:00:05;;;;;;;43.23;22.53;;;0.60;99.90;;;;;;5065638;28;20417;-70
2022/12/21 07:02:31;;;;;;;45.97;23.13;;;0.60;99.90;;;;;;5067783;28;20191;-70
2022/12/21 07:04:57;;;;;;;40.63;22.10;;;0.60;99.90;;;;;;5065870;28;20202;-70
2022/12/21 07:07:23;;;;;;;44.63;23.47;;;0.70;99.90;;;;;;5062359;28;20180;-71
2022/12/21 07:09:48;;;;;;;45.77;24.77;;;0.60;99.90;;;;;;5068764;28;20210;-72
2022/12/21 07:12:14;;;;;;;44.50;25.10;;;0.70;99.90;;;;;;5069183;28;20634;-71
2022/12/21 07:14:40;;;;;;;40.43;23.23;;;0.60;99.90;;;;;;5069425;28;20187;-71
2022/12/21 07:17:05;;;;;;;41.83;23.97;;;0.60;99.90;;;;;;5061294;28;20247;-71
2022/12/21 07:19:31;;;;;;;47.83;23.97;;;0.70;99.90;;;;;;5067809;28;20203;-71
2022/12/21 07:21:56;;;;;;;42.97;22.37;;;0.70;99.90;;;;;;5069631;28;20703;-71
2022/12/21 07:24:22;;;;;;;39.27;24.10;;;0.80;99.90;;;;;;5070690;28;20683;-71
2022/12/21 07:26:48;;;;;;;40.13;23.20;;;0.80;99.90;;;;;;5061826;28;20183;-71
2022/12/21 07:29:15;;;;;;;39.73;22.90;;;0.80;99.90;;;;;;5067032;28;20183;-72
2022/12/21 07:31:41;;;;;;;47.13;26.47;;;0.80;99.90;;;;;;5064963;28;20260;-70
2022/12/21 07:34:06;;;;;;;43.23;23.47;;;0.70;99.90;;;;;;5064049;28;21067;-70
2022/12/21 07:36:32;;;;;;;39.33;22.30;;;0.80;99.90;;;;;;5061834;28;20215;-69
2022/12/21 07:38:57;;;;;;;45.43;25.47;;;0.80;99.90;;;;;;5067057;28;20197;-69
2022/12/21 07:41:23;;;;;;;41.63;23.43;;;0.90;99.90;;;;;;5068144;28;20218;-69
2022/12/21 07:43:49;;;;;;;45.03;24.77;;;0.80;99.90;;;;;;5070700;28;20194;-69
2022/12/21 07:46:16;;;;;;;41.00;22.93;;;0.90;99.90;;;;;;5062816;28;20179;-69
2022/12/21 07:48:42;;;;;;;40.53;23.40;;;0.90;99.90;;;;;;5061919;28;20676;-69
2022/12/21 07:51:08;;;;;;;42.00;21.80;;;0.90;99.90;;;;;;5069382;28;20199;-70
2022/12/21 07:53:34;;;;;;;40.87;24.67;;;0.90;99.90;;;;;;5064614;28;20191;-70
2022/12/21 07:56:06;;;;;;;43.23;24.80;;;0.90;99.90;;;;;;5064878;28;20290;-70
2022/12/21 07:58:33;;;;;;;35.37;20.87;;;0.90;99.90;;;;;;5065495;28;20215;-70
2022/12/21 08:01:04;;;;;;;38.70;21.37;;;0.90;99.90;;;;;;5063402;28;20521;-70
2022/12/21 08:03:30;;;;;;;41.97;24.43;;;1.00;99.90;;;;;;5065627;28;20183;-69
2022/12/21 08:05:56;;;;;;;41.77;23.10;;;1.10;99.90;;;;;;5070246;28;20264;-70
2022/12/21 08:08:22;;;;;;;37.13;21.83;;;1.00;99.90;;;;;;5070505;28;20223;-70
2022/12/21 08:10:48;;;;;;;38.10;21.73;;;1.00;99.90;;;;;;5068554;28;20302;-70
2022/12/21 08:13:14;;;;;;;47.73;24.23;;;1.10;99.90;;;;;;5059643;28;20187;-70
2022/12/21 08:15:39;;;;;;;36.33;22.07;;;1.10;99.90;;;;;;5070444;28;20535;-70
2022/12/21 08:18:05;;;;;;;37.77;22.60;;;1.10;99.90;;;;;;5061817;28;20741;-70
2022/12/21 08:20:31;;;;;;;40.57;22.47;;;1.20;99.90;;;;;;5068022;28;20242;-71
2022/12/21 08:22:56;;;;;;;36.87;19.83;;;1.20;99.90;;;;;;5064573;28;20642;-71
2022/12/21 08:25:22;;;;;;;40.30;24.13;;;1.30;99.90;;;;;;5070118;28;20262;-71
2022/12/21 08:27:48;;;;;;;39.57;23.53;;;1.30;99.90;;;;;;5066134;28;20192;-70
2022/12/21 08:30:15;;;;;;;37.03;21.80;;;1.30;99.90;;;;;;5067079;28;20636;-71
2022/12/21 08:32:40;;;;;;;38.07;22.63;;;1.30;99.90;;;;;;5060443;28;20192;-70
2022/12/21 08:35:06;;;;;;;39.73;22.40;;;1.50;99.90;;;;;;5068696;28;20190;-70
2022/12/21 08:37:32;;;;;;;36.70;21.80;;;1.50;99.90;;;;;;5068879;28;20795;-71
2022/12/21 08:39:57;;;;;;;38.03;22.50;;;1.50;99.90;;;;;;5065342;28;20295;-71
2022/12/21 08:42:23;;;;;;;37.13;21.80;;;1.40;99.90;;;;;;5063079;28;20175;-71
2022/12/21 08:44:49;;;;;;;38.03;23.47;;;1.40;99.90;;;;;;5061383;28;20180;-71
2022/12/21 08:47:15;;;;;;;39.87;21.90;;;1.50;99.90;;;;;;5062667;28;20187;-71
2022/12/21 08:49:40;;;;;;;41.37;22.07;;;1.50;99.90;;;;;;5068083;28;20209;-72
2022/12/21 08:52:06;;;;;;;36.90;22.80;;;1.70;99.90;;;;;;5067458;28;20194;-73
2022/12/21 08:54:32;;;;;;;39.03;21.27;;;1.70;99.90;;;;;;5065064;28;20175;-72
2022/12/21 08:56:57;;;;;;;41.08;22.17;;;1.70;99.90;;;;;;5063520;28;20253;-71
2022/12/21 08:59:23;;;;;;;41.20;22.20;;;1.70;99.90;;;;;;5064269;28;20195;-72
2022/12/21 09:01:51;;;;;;;35.58;21.40;;;1.80;99.90;;;;;;5062221;28;20195;-73
2022/12/21 09:04:17;;;;;;;37.33;22.27;;;1.80;99.90;;;;;;5069266;28;20266;-70
2022/12/21 09:06:42;;;;;;;37.15;21.50;;;1.90;99.90;;;;;;5070919;28;20258;-69
2022/12/21 09:09:09;;;;;;;34.88;19.83;;;1.90;99.90;;;;;;5070444;28;20220;-70
2022/12/21 09:11:35;;;;;;;35.47;19.75;;;1.80;99.90;;;;;;5071707;28;20202;-69
2022/12/21 09:14:00;;;;;;;37.28;21.63;;;1.90;99.90;;;;;;5065466;28;20639;-69
2022/12/21 09:16:26;;;;;;;40.22;22.45;;;1.90;99.90;;;;;;5068472;28;20530;-70
2022/12/21 09:18:52;;;;;;;40.92;21.95;;;2.00;99.90;;;;;;5070387;28;20199;-69
2022/12/21 09:21:20;;;;;;;38.85;22.02;;;2.00;99.90;;;;;;5068090;28;20677;-69
2022/12/21 09:23:46;;;;;;;36.65;22.25;;;1.90;99.90;;;;;;5068986;28;20174;-70
2022/12/21 09:26:14;;;;;;;33.95;18.30;;;1.90;99.90;;;;;;5066201;28;20630;-69
2022/12/21 09:28:40;;;;;;;35.90;20.23;;;1.90;99.90;;;;;;5074869;28;20236;-70
2022/12/21 09:31:14;;;;;;;34.93;20.23;;;1.80;99.90;;;;;;5067392;28;20202;-70
2022/12/21 09:33:40;;;;;;;39.10;21.47;;;1.80;99.90;;;;;;5070981;28;20186;-71
2022/12/21 09:36:07;;;;;;;39.83;22.40;;;1.70;99.90;;;;;;5067038;28;20234;-72
2022/12/21 09:38:34;;;;;;;39.90;24.67;;;1.80;99.90;;;;;;5060395;28;20209;-71
2022/12/21 09:41:17;;;;;;;38.17;21.60;;;1.70;99.90;;;;;;5063508;28;20649;-71
2022/12/21 09:43:50;;;;;;;39.90;22.23;;;1.70;99.90;;;;;;5061432;28;20199;-70
2022/12/21 09:46:16;;;;;;;36.70;21.03;;;1.60;99.90;;;;;;5064939;28;20179;-70
2022/12/21 09:48:53;;;;;;;42.30;23.53;;;1.70;99.90;;;;;;5063740;28;20626;-71
2022/12/21 09:51:22;;;;;;;38.47;21.50;;;1.70;99.90;;;;;;5060234;28;20198;-70
2022/12/21 09:53:59;;;;;;;33.77;22.17;;;1.70;99.90;;;;;;5065503;28;20183;-72
2022/12/21 09:56:26;;;;;;;36.07;22.37;;;1.70;99.90;;;;;;5055869;28;20183;-71
2022/12/21 09:58:54;;;;;;;36.57;21.77;;;1.80;99.90;;;;;;5059354;28;20234;-70
2022/12/21 10:01:28;;;;;;;39.07;22.60;;;1.70;99.90;;;;;;5058685;28;20221;-70
2022/12/21 10:04:33;;;;;;;37.50;21.93;;;1.80;99.90;;;;;;5070598;28;20187;-70
2022/12/21 10:07:01;;;;;;;31.10;20.33;;;1.70;99.90;;;;;;5062546;28;20309;-69
2022/12/21 10:09:51;;;;;;;35.93;21.80;;;1.80;99.90;;;;;;5068682;28;20673;-69
2022/12/21 10:12:47;;;;;;;30.67;18.57;;;2.00;99.90;;;;;;5065248;28;20195;-70
2022/12/21 10:15:28;;;;;;;34.33;21.40;;;1.90;99.90;;;;;;5065638;28;20183;-70
2022/12/21 10:17:59;;;;;;;33.58;19.27;;;2.00;99.90;;;;;;5072384;28;20209;-70
2022/12/21 10:20:58;;;;;;;32.93;19.43;;;2.10;99.90;;;;;;5067271;28;20200;-70
2022/12/21 10:23:46;;;;;;;33.60;21.38;;;2.10;99.90;;;;;;5062339;28;20180;-70
2022/12/21 10:26:16;;;;;;;30.92;18.80;;;1.80;99.90;;;;;;5063613;28;20175;-70
2022/12/21 10:28:51;;;;;;;32.33;20.50;;;1.80;99.90;;;;;;5060399;28;20187;-70
2022/12/21 10:31:42;;;;;;;32.83;18.63;;;1.80;99.90;;;;;;5067830;28;20210;-70
2022/12/21 10:34:29;;;;;;;28.42;17.67;;;1.90;99.90;;;;;;5070479;28;20622;-71
2022/12/21 10:36:59;;;;;;;33.35;19.48;;;1.90;99.90;;;;;;5070426;28;20665;-71
2022/12/21 10:39:26;;;;;;;32.13;19.92;;;1.90;99.90;;;;;;5068213;28;20195;-70
2022/12/21 10:42:26;;;;;;;33.88;20.40;;;2.10;99.90;;;;;;5067221;28;20184;-70
2022/12/21 10:44:52;;;;;;;33.78;20.15;;;1.90;99.90;;;;;;5062203;28;20187;-71
2022/12/21 10:47:23;;;;;;;32.23;19.23;;;2.00;99.90;;;;;;5070098;28;20958;-71
2022/12/21 10:50:06;;;;;;;34.40;20.48;;;2.00;99.90;;;;;;5067004;28;20230;-70
2022/12/21 10:52:33;;;;;;;30.55;19.58;;;2.00;99.90;;;;;;5071373;28;20186;-70
2022/12/21 10:54:59;;;;;;;31.20;19.00;;;2.00;99.90;;;;;;5063133;28;20187;-71
2022/12/21 10:57:28;;;;;;;32.78;20.95;;;2.10;99.90;;;;;;5065008;28;20286;-70
2022/12/21 10:59:53;;;;;;;34.13;21.77;;;2.20;99.90;;;;;;5072031;28;20244;-73
2022/12/21 11:02:43;;;;;;;34.03;20.10;;;2.10;99.90;;;;;;5071694;28;20605;-71
2022/12/21 11:05:38;;;;;;;41.03;22.63;;;2.00;99.90;;;;;;5068738;28;20194;-71
2022/12/21 11:08:12;;;;;;;30.77;20.50;;;1.90;99.90;;;;;;5057764;28;20207;-72
2022/12/21 11:10:43;;;;;;;37.35;20.75;;;1.90;99.90;;;;;;5072789;28;20693;-72
2022/12/21 11:13:11;;;;;;;39.40;21.88;;;1.90;99.90;;;;;;5067203;28;20236;-71
2022/12/21 11:15:37;;;;;;;34.33;20.60;;;1.80;99.90;;;;;;5068949;28;20224;-71
2022/12/21 11:18:03;;;;;;;31.90;19.93;;;2.00;99.90;;;;;;5066145;28;20211;-71
2022/12/21 11:20:29;;;;;;;34.70;21.48;;;2.10;99.90;;;;;;5061773;28;20199;-71
2022/12/21 11:22:56;;;;;;;36.25;21.23;;;2.20;99.90;;;;;;5065133;28;20574;-71
2022/12/21 11:25:28;;;;;;;31.50;19.63;;;2.10;99.90;;;;;;5068806;28;20699;-71
2022/12/21 11:27:58;;;;;;;34.70;20.45;;;2.10;99.90;;;;;;5066002;28;20171;-71
2022/12/21 11:30:31;;;;;;;34.67;20.42;;;2.30;99.90;;;;;;5067805;28;20231;-71
2022/12/21 11:32:59;;;;;;;36.58;21.40;;;2.30;99.90;;;;;;5066041;28;20618;-71
2022/12/21 11:35:27;;;;;;;35.97;21.52;;;2.40;99.90;;;;;;5069306;28;20188;-71
2022/12/21 11:38:10;;;;;;;35.05;22.88;;;2.60;99.90;;;;;;5069391;28;20672;-71
2022/12/21 11:40:36;;;;;;;34.30;19.52;;;2.60;99.90;;;;;;5064670;28;20250;-70
2022/12/21 11:43:14;;;;;;;33.67;20.45;;;2.90;99.90;;;;;;5068689;28;20260;-71
2022/12/21 11:45:58;;;;;;;35.38;22.40;;;3.00;99.90;;;;;;5068331;28;20660;-70
2022/12/21 11:48:41;;;;;;;36.08;20.88;;;3.10;99.90;;;;;;5069279;28;20586;-71
2022/12/21 11:51:19;;;;;;;31.42;20.33;;;3.00;99.90;;;;;;5068747;28;20708;-71
2022/12/21 11:54:00;;;;;;;34.83;21.38;;;3.10;99.90;;;;;;5067952;28;20186;-71
2022/12/21 11:56:31;;;;;;;41.35;22.42;;;3.00;99.90;;;;;;5066641;28;20549;-71
2022/12/21 11:58:56;;;;;;;36.97;22.70;;;3.00;99.90;;;;;;5060143;28;20245;-71
2022/12/21 12:01:38;;;;;;;35.78;21.73;;;2.80;99.90;;;;;;5068581;28;20219;-71
2022/12/21 12:04:23;;;;;;;36.72;22.15;;;2.80;99.90;;;;;;5067752;28;20266;-71
2022/12/21 12:07:00;;;;;;;36.47;21.85;;;2.80;99.90;;;;;;5067566;28;20186;-72
2022/12/21 12:10:04;;;;;;;34.60;21.42;;;2.70;99.90;;;;;;5069901;28;20676;-71
2022/12/21 12:13:03;;;;;;;37.03;20.92;;;2.60;99.90;;;;;;5063527;28;20263;-73
2022/12/21 12:16:12;;;;;;;34.53;19.38;;;2.60;99.90;;;;;;5067340;28;20538;-73
2022/12/21 12:18:47;;;;;;;31.45;19.67;;;2.50;99.90;;;;;;5029875;28;20223;-74
2022/12/21 12:21:30;;;;;;;39.65;23.30;;;2.40;99.90;;;;;;5064173;28;20206;-75
2022/12/21 12:24:14;;;;;;;36.42;21.05;;;2.60;99.90;;;;;;5068693;28;20520;-76
2022/12/21 12:26:48;;;;;;;36.13;20.80;;;2.40;99.90;;;;;;5068155;28;20182;-74
2022/12/21 12:29:31;;;;;;;38.22;24.58;;;2.50;99.90;;;;;;5066163;28;20679;-76
2022/12/21 12:32:28;;;;;;;31.08;19.02;;;2.40;99.90;;;;;;5064697;28;20182;-74
2022/12/21 12:34:53;;;;;;;35.40;21.40;;;2.40;99.90;;;;;;5067123;28;20186;-76
2022/12/21 12:37:40;;;;;;;36.53;22.20;;;2.40;99.90;;;;;;5070200;28;20203;-74
2022/12/21 12:40:33;;;;;;;35.05;20.15;;;2.30;99.90;;;;;;5061260;28;20592;-74
2022/12/21 12:43:08;;;;;;;32.55;19.75;;;2.40;99.90;;;;;;5061709;28;20237;-74
2022/12/21 12:45:48;;;;;;;38.90;23.02;;;2.50;99.90;;;;;;5059076;28;20177;-74
2022/12/21 12:48:14;;;;;;;38.78;22.83;;;2.50;99.90;;;;;;5061760;28;20179;-74
2022/12/21 12:51:02;;;;;;;36.00;21.02;;;2.40;99.90;;;;;;5060098;28;20677;-74
2022/12/21 12:53:46;;;;;;;35.05;20.70;;;2.40;99.90;;;;;;5061648;28;20179;-75
2022/12/21 12:56:43;;;;;;;35.08;21.67;;;2.50;99.90;;;;;;5062641;28;20175;-75
2022/12/21 12:59:33;;;;;;;35.53;22.27;;;2.50;99.90;;;;;;5059305;28;20187;-74
2022/12/21 13:02:06;;;;;;;34.92;21.15;;;2.50;99.90;;;;;;5056326;28;20187;-75
2022/12/21 13:04:57;;;;;;;40.13;23.25;;;2.50;99.90;;;;;;5064935;28;20195;-74
2022/12/21 13:07:58;;;;;;;34.22;21.02;;;2.50;99.90;;;;;;5068978;28;20270;-73